Time;durP1;ratioP1;P1;durP2;ratioP2;P2;SDS_P1;SDS_P2;PMS_P1;PMS_P2;Temp;Humidity;BMP_temperature;BMP_pressure;BME280_temperature;BME280_humidity;BME280_pressure;Samples;Min_cycle;Max_cycle;Signal;HPM_P1;HPM_P2
2022/01/11 00:00:29;;;;;;;0.50;0.50;;;;;;;;;;4415595;32;20087;-51
2022/01/11 00:03:12;;;;;;;0.52;0.50;;;;;;;;;;4404181;32;20426;-50
2022/01/11 00:05:53;;;;;;;1.65;0.70;;;;;;;;;;4418246;32;20116;-50
2022/01/11 00:08:29;;;;;;;1.23;0.50;;;;;;;;;;4410829;32;20409;-50
2022/01/11 00:11:06;;;;;;;0.50;0.50;;;;;;;;;;4414672;32;20472;-53
2022/01/11 00:13:35;;;;;;;1.00;0.50;;;;;;;;;;4415836;32;20050;-50
2022/01/11 00:16:05;;;;;;;0.65;0.50;;;;;;;;;;4413660;32;20057;-51
2022/01/11 00:18:33;;;;;;;0.50;0.50;;;;;;;;;;4400803;32;20437;-51
2022/01/11 00:21:02;;;;;;;0.75;0.50;;;;;;;;;;4417443;32;20137;-49
2022/01/11 00:25:59;;;;;;;0.50;0.50;;;;;;;;;;4413739;32;20068;-50
2022/01/11 00:28:29;;;;;;;0.70;0.70;;;;;;;;;;4421888;32;20030;-54
2022/01/11 00:30:59;;;;;;;0.50;0.50;;;;;;;;;;4414854;32;20050;-52
2022/01/11 00:33:41;;;;;;;0.68;0.50;;;;;;;;;;4409979;32;20427;-51
2022/01/11 00:36:11;;;;;;;0.47;0.47;;;;;;;;;;4413394;32;20046;-50
2022/01/11 00:38:41;;;;;;;0.50;0.50;;;;;;;;;;4408219;32;20080;-51
2022/01/11 00:41:12;;;;;;;0.47;0.40;;;;;;;;;;4419276;32;20415;-50
2022/01/11 00:43:41;;;;;;;0.60;0.60;;;;;;;;;;4410083;32;20050;-51
2022/01/11 00:46:11;;;;;;;0.60;0.55;;;;;;;;;;4416039;32;20444;-50
2022/01/11 00:48:40;;;;;;;0.55;0.50;;;;;;;;;;4414279;32;20056;-50
2022/01/11 00:51:10;;;;;;;0.50;0.50;;;;;;;;;;4416263;32;20056;-52
2022/01/11 00:53:40;;;;;;;0.50;0.50;;;;;;;;;;4416243;32;20065;-52
2022/01/11 00:56:09;;;;;;;0.43;0.43;;;;;;;;;;4406412;32;20102;-53
2022/01/11 00:58:37;;;;;;;0.73;0.50;;;;;;;;;;4412962;32;20381;-50
2022/01/11 01:01:06;;;;;;;0.37;0.37;;;;;;;;;;4414704;32;20062;-53
2022/01/11 01:03:35;;;;;;;0.77;0.52;;;;;;;;;;4409102;32;20019;-53
2022/01/11 01:06:03;;;;;;;0.50;0.50;;;;;;;;;;4413105;32;20372;-50
2022/01/11 01:08:32;;;;;;;0.50;0.50;;;;;;;;;;4415386;32;20080;-50
2022/01/11 01:11:00;;;;;;;0.60;0.50;;;;;;;;;;4412396;32;20073;-53
2022/01/11 01:13:29;;;;;;;0.55;0.50;;;;;;;;;;4411002;32;20046;-50
2022/01/11 01:15:59;;;;;;;0.55;0.55;;;;;;;;;;4414639;32;20026;-52
2022/01/11 01:18:31;;;;;;;0.60;0.60;;;;;;;;;;4419393;32;20128;-50
2022/01/11 01:20:59;;;;;;;0.50;0.50;;;;;;;;;;4413960;32;20050;-51
2022/01/11 01:23:28;;;;;;;0.77;0.50;;;;;;;;;;4414103;32;20135;-51
2022/01/11 01:25:57;;;;;;;0.50;0.50;;;;;;;;;;4412825;32;20464;-51
2022/01/11 01:28:26;;;;;;;0.50;0.50;;;;;;;;;;4410651;32;20042;-51
2022/01/11 01:30:55;;;;;;;0.60;0.60;;;;;;;;;;4413538;32;20019;-51
2022/01/11 01:33:23;;;;;;;0.50;0.50;;;;;;;;;;4414766;32;20031;-50
2022/01/11 01:35:59;;;;;;;0.82;0.50;;;;;;;;;;4417004;32;20680;-50
2022/01/11 01:38:27;;;;;;;0.70;0.60;;;;;;;;;;4411036;32;20106;-51
2022/01/11 01:41:01;;;;;;;0.73;0.47;;;;;;;;;;4409851;32;20050;-50
2022/01/11 01:43:29;;;;;;;0.80;0.50;;;;;;;;;;4403911;32;20039;-50
2022/01/11 01:46:00;;;;;;;0.50;0.50;;;;;;;;;;4414297;32;20038;-52
2022/01/11 01:48:29;;;;;;;0.73;0.60;;;;;;;;;;4413294;32;20106;-51
2022/01/11 01:50:58;;;;;;;0.80;0.60;;;;;;;;;;4412205;32;20034;-53
2022/01/11 01:53:26;;;;;;;0.88;0.50;;;;;;;;;;4410676;32;20042;-50
2022/01/11 01:55:55;;;;;;;0.50;0.50;;;;;;;;;;4403823;32;20346;-52
2022/01/11 01:58:25;;;;;;;0.40;0.40;;;;;;;;;;4404564;32;20076;-51
2022/01/11 02:01:02;;;;;;;0.55;0.50;;;;;;;;;;4418220;32;20444;-51
2022/01/11 02:03:37;;;;;;;0.50;0.50;;;;;;;;;;4410390;32;20049;-51
2022/01/11 02:06:06;;;;;;;0.57;0.57;;;;;;;;;;4415189;32;20117;-50
2022/01/11 02:08:36;;;;;;;1.77;0.50;;;;;;;;;;4410481;32;20098;-53
2022/01/11 02:11:04;;;;;;;0.50;0.50;;;;;;;;;;4402978;32;20438;-50
2022/01/11 02:13:33;;;;;;;0.73;0.50;;;;;;;;;;4405210;32;20042;-50
2022/01/11 02:16:04;;;;;;;0.40;0.40;;;;;;;;;;4415300;32;20486;-53
2022/01/11 02:18:33;;;;;;;0.50;0.50;;;;;;;;;;4407410;32;20170;-51
2022/01/11 02:21:02;;;;;;;0.50;0.40;;;;;;;;;;4407379;32;20086;-53
2022/01/11 02:23:30;;;;;;;0.40;0.40;;;;;;;;;;4413210;32;20050;-52
2022/01/11 02:25:59;;;;;;;0.50;0.50;;;;;;;;;;4409763;32;20056;-53
2022/01/11 02:28:29;;;;;;;0.40;0.40;;;;;;;;;;4412185;32;20038;-53
2022/01/11 02:30:58;;;;;;;0.80;0.50;;;;;;;;;;4419711;32;20038;-51
2022/01/11 02:33:32;;;;;;;0.60;0.60;;;;;;;;;;4413344;32;20042;-51
2022/01/11 02:36:05;;;;;;;0.52;0.52;;;;;;;;;;4411667;32;20077;-52
2022/01/11 02:38:34;;;;;;;0.50;0.50;;;;;;;;;;4413052;32;20087;-50
2022/01/11 02:41:03;;;;;;;0.60;0.60;;;;;;;;;;4410101;32;20477;-51
2022/01/11 02:43:32;;;;;;;0.47;0.43;;;;;;;;;;4411688;32;20034;-52
2022/01/11 02:46:01;;;;;;;0.60;0.50;;;;;;;;;;4404289;32;20031;-51
2022/01/11 02:48:30;;;;;;;0.37;0.37;;;;;;;;;;4408114;32;20035;-52
2022/01/11 02:50:59;;;;;;;0.50;0.50;;;;;;;;;;4419079;32;20034;-51
2022/01/11 02:53:28;;;;;;;0.40;0.40;;;;;;;;;;4418067;32;20042;-50
2022/01/11 02:55:57;;;;;;;0.52;0.52;;;;;;;;;;4407134;32;20038;-51
2022/01/11 02:58:25;;;;;;;0.43;0.40;;;;;;;;;;4410577;32;20026;-51
2022/01/11 03:00:54;;;;;;;0.50;0.50;;;;;;;;;;4417166;32;20088;-50
2022/01/11 03:03:24;;;;;;;0.43;0.43;;;;;;;;;;4413046;32;20369;-51
2022/01/11 03:05:57;;;;;;;1.45;0.50;;;;;;;;;;4412460;32;20115;-54
2022/01/11 03:08:28;;;;;;;0.50;0.50;;;;;;;;;;4413743;32;20050;-51
2022/01/11 03:10:57;;;;;;;0.50;0.50;;;;;;;;;;4411564;32;20030;-50
2022/01/11 03:13:25;;;;;;;0.90;0.50;;;;;;;;;;4405659;32;20116;-54
2022/01/11 03:15:54;;;;;;;0.50;0.50;;;;;;;;;;4413727;32;20107;-51
2022/01/11 03:18:23;;;;;;;0.50;0.50;;;;;;;;;;4405373;32;20059;-51
2022/01/11 03:20:53;;;;;;;0.52;0.47;;;;;;;;;;4403780;32;20089;-50
2022/01/11 03:23:22;;;;;;;0.40;0.40;;;;;;;;;;4411636;32;20038;-51
2022/01/11 03:25:51;;;;;;;1.20;0.40;;;;;;;;;;4410012;32;20054;-51
2022/01/11 03:28:20;;;;;;;0.40;0.40;;;;;;;;;;4410642;32;20050;-52
2022/01/11 03:30:49;;;;;;;0.82;0.60;;;;;;;;;;4412630;32;20430;-50
2022/01/11 03:33:18;;;;;;;0.82;0.50;;;;;;;;;;4416822;32;20440;-51
2022/01/11 03:35:46;;;;;;;0.30;0.30;;;;;;;;;;4414615;32;20038;-54
2022/01/11 03:38:16;;;;;;;0.50;0.50;;;;;;;;;;4410361;32;20035;-50
2022/01/11 03:40:45;;;;;;;0.57;0.50;;;;;;;;;;4407953;32;20060;-53
2022/01/11 03:43:14;;;;;;;0.40;0.40;;;;;;;;;;4403970;32;20369;-51
2022/01/11 03:45:43;;;;;;;0.62;0.60;;;;;;;;;;4409937;32;20043;-52
2022/01/11 03:48:15;;;;;;;0.40;0.40;;;;;;;;;;4410985;32;20069;-54
2022/01/11 03:50:49;;;;;;;0.52;0.50;;;;;;;;;;4413405;32;20042;-50
2022/01/11 03:53:19;;;;;;;0.50;0.50;;;;;;;;;;4415660;32;20063;-50
2022/01/11 03:56:09;;;;;;;0.55;0.55;;;;;;;;;;4405885;32;20045;-54
2022/01/11 03:58:38;;;;;;;0.50;0.50;;;;;;;;;;4412276;32;20073;-50
2022/01/11 04:01:07;;;;;;;0.40;0.40;;;;;;;;;;4408325;32;20078;-53
2022/01/11 04:03:37;;;;;;;0.50;0.50;;;;;;;;;;4408778;32;20053;-51
2022/01/11 04:06:05;;;;;;;0.50;0.50;;;;;;;;;;4411035;32;20062;-53
2022/01/11 04:08:34;;;;;;;1.37;0.50;;;;;;;;;;4415947;32;20106;-54
2022/01/11 04:11:04;;;;;;;0.50;0.50;;;;;;;;;;4412461;32;20119;-53
2022/01/11 04:13:32;;;;;;;0.60;0.50;;;;;;;;;;4410299;32;20517;-53
2022/01/11 04:16:00;;;;;;;0.50;0.50;;;;;;;;;;4413693;32;20083;-51
2022/01/11 04:18:30;;;;;;;0.40;0.40;;;;;;;;;;4411191;32;20062;-54
2022/01/11 04:20:59;;;;;;;1.05;0.50;;;;;;;;;;4412121;32;20059;-50
2022/01/11 04:23:27;;;;;;;0.40;0.40;;;;;;;;;;4410064;32;20046;-54
2022/01/11 04:25:56;;;;;;;0.40;0.40;;;;;;;;;;4414632;32;20035;-52
2022/01/11 04:28:25;;;;;;;0.50;0.50;;;;;;;;;;4416642;32;20471;-52
2022/01/11 04:30:53;;;;;;;0.68;0.60;;;;;;;;;;4412140;32;20080;-53
2022/01/11 04:33:23;;;;;;;0.40;0.40;;;;;;;;;;4412763;32;20187;-51
2022/01/11 04:35:52;;;;;;;0.70;0.50;;;;;;;;;;4416626;32;20089;-51
2022/01/11 04:38:24;;;;;;;0.62;0.50;;;;;;;;;;4416284;32;20105;-51
2022/01/11 04:40:53;;;;;;;0.52;0.40;;;;;;;;;;4418224;32;20552;-51
2022/01/11 04:43:21;;;;;;;0.60;0.60;;;;;;;;;;4409902;32;20054;-50
2022/01/11 04:45:50;;;;;;;0.50;0.50;;;;;;;;;;4413764;32;20434;-51
2022/01/11 04:48:18;;;;;;;0.50;0.50;;;;;;;;;;4414287;32;20084;-52
2022/01/11 04:50:47;;;;;;;0.50;0.50;;;;;;;;;;4420890;32;20101;-51
2022/01/11 04:53:16;;;;;;;0.80;0.40;;;;;;;;;;4421342;32;20050;-53
2022/01/11 04:55:44;;;;;;;0.50;0.50;;;;;;;;;;4415335;32;20083;-52
2022/01/11 04:58:13;;;;;;;0.40;0.40;;;;;;;;;;4421257;32;20078;-52
2022/01/11 05:00:41;;;;;;;1.20;0.45;;;;;;;;;;4415316;32;20076;-50
2022/01/11 05:03:10;;;;;;;0.50;0.50;;;;;;;;;;4415786;32;20042;-52
2022/01/11 05:05:39;;;;;;;0.50;0.50;;;;;;;;;;4409556;32;20034;-51
2022/01/11 05:08:07;;;;;;;0.40;0.40;;;;;;;;;;4408514;32;20637;-50
2022/01/11 05:10:42;;;;;;;0.62;0.60;;;;;;;;;;4417740;32;20083;-50
2022/01/11 05:13:11;;;;;;;0.55;0.55;;;;;;;;;;4412766;32;20058;-51
2022/01/11 05:15:42;;;;;;;0.40;0.40;;;;;;;;;;4404480;32;20073;-53
2022/01/11 05:18:11;;;;;;;0.40;0.40;;;;;;;;;;4406033;32;20077;-50
2022/01/11 05:20:41;;;;;;;0.50;0.50;;;;;;;;;;4406849;32;20345;-51
2022/01/11 05:23:10;;;;;;;0.50;0.50;;;;;;;;;;4406962;32;20470;-51
2022/01/11 05:25:38;;;;;;;0.50;0.50;;;;;;;;;;4411358;32;20433;-51
2022/01/11 05:28:10;;;;;;;0.45;0.45;;;;;;;;;;4413146;32;20046;-51
2022/01/11 05:30:38;;;;;;;0.43;0.43;;;;;;;;;;4409110;32;20047;-52
2022/01/11 05:33:06;;;;;;;0.68;0.57;;;;;;;;;;4414322;32;20030;-51
2022/01/11 05:35:36;;;;;;;0.50;0.50;;;;;;;;;;4413852;32;20034;-52
2022/01/11 05:38:10;;;;;;;0.40;0.40;;;;;;;;;;4413000;32;20122;-52
2022/01/11 05:40:39;;;;;;;0.50;0.50;;;;;;;;;;4419642;32;20038;-51
2022/01/11 05:43:09;;;;;;;0.40;0.40;;;;;;;;;;4407737;32;20060;-51
2022/01/11 05:45:37;;;;;;;0.40;0.40;;;;;;;;;;4411055;32;20487;-52
2022/01/11 05:48:06;;;;;;;0.40;0.40;;;;;;;;;;4412475;32;20076;-51
2022/01/11 05:50:35;;;;;;;0.50;0.50;;;;;;;;;;4417970;32;20105;-54
2022/01/11 05:53:03;;;;;;;0.50;0.50;;;;;;;;;;4410839;32;20417;-52
2022/01/11 05:55:33;;;;;;;0.40;0.40;;;;;;;;;;4411337;32;20085;-54
2022/01/11 05:58:02;;;;;;;0.70;0.40;;;;;;;;;;4418528;32;20054;-54
2022/01/11 06:00:31;;;;;;;0.50;0.50;;;;;;;;;;4418931;32;20094;-51
2022/01/11 06:03:00;;;;;;;0.43;0.43;;;;;;;;;;4412669;32;20357;-51
2022/01/11 06:05:31;;;;;;;0.40;0.40;;;;;;;;;;4410597;32;20035;-54
2022/01/11 06:08:00;;;;;;;0.50;0.50;;;;;;;;;;4405787;32;20366;-52
2022/01/11 06:10:28;;;;;;;0.40;0.40;;;;;;;;;;4419583;32;20092;-52
2022/01/11 06:12:57;;;;;;;0.37;0.37;;;;;;;;;;4412680;32;20338;-54
2022/01/11 06:15:29;;;;;;;0.40;0.40;;;;;;;;;;4409594;32;20316;-51
2022/01/11 06:17:58;;;;;;;0.47;0.47;;;;;;;;;;4407103;32;20065;-53
2022/01/11 06:20:27;;;;;;;0.40;0.40;;;;;;;;;;4417977;32;20339;-51
2022/01/11 06:22:55;;;;;;;0.30;0.30;;;;;;;;;;4413327;32;20068;-54
2022/01/11 06:25:23;;;;;;;0.47;0.45;;;;;;;;;;4411185;32;20153;-54
2022/01/11 06:27:52;;;;;;;0.40;0.40;;;;;;;;;;4414224;32;20060;-51
2022/01/11 06:30:21;;;;;;;0.50;0.50;;;;;;;;;;4413852;32;20500;-53
2022/01/11 06:32:49;;;;;;;0.50;0.50;;;;;;;;;;4412169;32;20113;-52
2022/01/11 06:35:23;;;;;;;0.50;0.50;;;;;;;;;;4417083;32;20062;-51
2022/01/11 06:37:52;;;;;;;0.50;0.50;;;;;;;;;;4412639;32;20091;-51
2022/01/11 06:40:21;;;;;;;0.40;0.40;;;;;;;;;;4406832;32;20061;-52
2022/01/11 06:42:51;;;;;;;0.40;0.40;;;;;;;;;;4411367;32;20351;-49
2022/01/11 06:45:21;;;;;;;0.60;0.60;;;;;;;;;;4410902;32;20048;-53
2022/01/11 06:47:50;;;;;;;0.60;0.60;;;;;;;;;;4414959;32;20038;-52
2022/01/11 06:50:19;;;;;;;0.50;0.50;;;;;;;;;;4408044;32;20043;-50
2022/01/11 06:52:47;;;;;;;0.50;0.50;;;;;;;;;;4416940;32;20479;-51
2022/01/11 06:55:17;;;;;;;0.40;0.40;;;;;;;;;;4405187;32;20413;-52
2022/01/11 06:57:46;;;;;;;0.40;0.40;;;;;;;;;;4407076;32;20046;-51
2022/01/11 07:00:16;;;;;;;0.50;0.50;;;;;;;;;;4412335;32;20104;-54
2022/01/11 07:02:49;;;;;;;0.50;0.50;;;;;;;;;;4405259;32;20091;-54
2022/01/11 07:05:23;;;;;;;0.50;0.50;;;;;;;;;;4416435;32;20483;-53
2022/01/11 07:07:52;;;;;;;0.60;0.50;;;;;;;;;;4411021;32;20048;-51
2022/01/11 07:10:20;;;;;;;0.50;0.50;;;;;;;;;;4407388;32;20403;-54
2022/01/11 07:12:49;;;;;;;0.50;0.37;;;;;;;;;;4409765;32;20084;-52
2022/01/11 07:15:17;;;;;;;0.45;0.45;;;;;;;;;;4412388;32;20035;-51
2022/01/11 07:17:47;;;;;;;0.40;0.40;;;;;;;;;;4415889;32;20054;-53
2022/01/11 07:20:16;;;;;;;0.35;0.35;;;;;;;;;;4413351;32;20425;-51
2022/01/11 07:22:45;;;;;;;0.30;0.30;;;;;;;;;;4405494;32;20035;-51
2022/01/11 07:25:14;;;;;;;0.62;0.45;;;;;;;;;;4409789;32;20100;-53
2022/01/11 07:27:43;;;;;;;0.50;0.50;;;;;;;;;;4415119;32;20050;-54
2022/01/11 07:30:12;;;;;;;0.40;0.40;;;;;;;;;;4414332;32;20042;-50
2022/01/11 07:32:41;;;;;;;0.50;0.40;;;;;;;;;;4404497;32;20066;-53
2022/01/11 07:35:09;;;;;;;0.50;0.50;;;;;;;;;;4409098;32;20434;-53
2022/01/11 07:37:43;;;;;;;0.40;0.40;;;;;;;;;;4417127;32;20043;-54
2022/01/11 07:40:12;;;;;;;0.50;0.50;;;;;;;;;;4412560;32;20455;-53
2022/01/11 07:42:41;;;;;;;0.40;0.40;;;;;;;;;;4411684;32;20035;-50
2022/01/11 07:45:11;;;;;;;0.50;0.50;;;;;;;;;;4405472;32;20098;-50
2022/01/11 07:47:39;;;;;;;0.40;0.40;;;;;;;;;;4416393;32;20042;-53
2022/01/11 07:50:08;;;;;;;0.30;0.30;;;;;;;;;;4414261;32;20070;-50
2022/01/11 07:52:37;;;;;;;0.30;0.30;;;;;;;;;;4414655;32;20058;-51
2022/01/11 07:55:06;;;;;;;0.40;0.40;;;;;;;;;;4407352;32;20426;-50
2022/01/11 07:57:35;;;;;;;0.60;0.50;;;;;;;;;;4413930;32;20090;-53
2022/01/11 08:00:05;;;;;;;1.85;0.50;;;;;;;;;;4405992;32;20035;-52
2022/01/11 08:02:41;;;;;;;0.68;0.40;;;;;;;;;;4403223;32;20065;-51
2022/01/11 08:05:11;;;;;;;1.27;0.50;;;;;;;;;;4412762;32;20415;-52
2022/01/11 08:07:42;;;;;;;1.33;0.50;;;;;;;;;;4413166;32;20366;-51
2022/01/11 08:10:12;;;;;;;0.40;0.40;;;;;;;;;;4407033;32;20055;-50
2022/01/11 08:12:40;;;;;;;0.40;0.40;;;;;;;;;;4408745;32;20053;-50
2022/01/11 08:15:09;;;;;;;0.40;0.40;;;;;;;;;;4403357;32;20487;-53
2022/01/11 08:17:39;;;;;;;0.73;0.45;;;;;;;;;;4413748;32;20079;-50
2022/01/11 08:20:08;;;;;;;1.67;0.50;;;;;;;;;;4402968;32;20035;-50
2022/01/11 08:22:37;;;;;;;0.40;0.40;;;;;;;;;;4411745;32;20388;-50
2022/01/11 08:25:07;;;;;;;0.30;0.30;;;;;;;;;;4411239;32;20047;-53
2022/01/11 08:27:35;;;;;;;0.40;0.37;;;;;;;;;;4408360;32;20371;-51
2022/01/11 08:30:06;;;;;;;0.30;0.30;;;;;;;;;;4412493;32;20034;-51
2022/01/11 08:32:36;;;;;;;0.40;0.40;;;;;;;;;;4411182;32;20071;-50
2022/01/11 08:35:05;;;;;;;0.40;0.40;;;;;;;;;;4407219;32;20092;-50
2022/01/11 08:37:35;;;;;;;0.73;0.57;;;;;;;;;;4411262;32;20149;-50
2022/01/11 08:40:04;;;;;;;0.40;0.40;;;;;;;;;;4415930;32;20038;-52
2022/01/11 08:42:32;;;;;;;0.40;0.40;;;;;;;;;;4413851;32;20112;-52
2022/01/11 08:45:03;;;;;;;0.60;0.40;;;;;;;;;;4411619;32;20042;-53
2022/01/11 08:47:33;;;;;;;0.52;0.40;;;;;;;;;;4416484;32;20099;-52
2022/01/11 08:50:04;;;;;;;0.40;0.40;;;;;;;;;;4408959;32;20042;-50
2022/01/11 08:52:33;;;;;;;0.50;0.50;;;;;;;;;;4414652;32;20064;-51
2022/01/11 08:55:02;;;;;;;0.40;0.40;;;;;;;;;;4415100;32;20079;-50
2022/01/11 08:57:31;;;;;;;0.55;0.35;;;;;;;;;;4415270;32;20065;-49
2022/01/11 09:00:02;;;;;;;0.50;0.50;;;;;;;;;;4407591;32;20566;-52
2022/01/11 09:02:32;;;;;;;0.50;0.40;;;;;;;;;;4405293;32;20035;-50
2022/01/11 09:05:02;;;;;;;1.23;0.30;;;;;;;;;;4399025;32;21572;-52
2022/01/11 09:07:33;;;;;;;0.40;0.40;;;;;;;;;;4406949;32;20054;-52
2022/01/11 09:10:02;;;;;;;0.50;0.30;;;;;;;;;;4408123;32;20094;-51
2022/01/11 09:12:30;;;;;;;0.40;0.40;;;;;;;;;;4403451;32;20418;-49
2022/01/11 09:14:58;;;;;;;0.30;0.30;;;;;;;;;;4407427;32;20072;-51
2022/01/11 09:17:27;;;;;;;0.30;0.30;;;;;;;;;;4416606;32;20088;-49
2022/01/11 09:19:56;;;;;;;0.30;0.30;;;;;;;;;;4412833;32;20391;-52
2022/01/11 09:22:24;;;;;;;0.30;0.30;;;;;;;;;;4416960;32;20073;-54
2022/01/11 09:24:55;;;;;;;0.85;0.40;;;;;;;;;;4414230;32;20049;-50
2022/01/11 09:27:24;;;;;;;0.40;0.40;;;;;;;;;;4411759;32;20094;-50
2022/01/11 09:29:53;;;;;;;0.40;0.40;;;;;;;;;;4410967;32;20034;-50
2022/01/11 09:32:22;;;;;;;1.17;0.47;;;;;;;;;;4403962;32;20403;-51
2022/01/11 09:34:51;;;;;;;0.35;0.30;;;;;;;;;;4414381;32;20381;-50
2022/01/11 09:37:20;;;;;;;0.50;0.40;;;;;;;;;;4415808;32;20038;-50
2022/01/11 09:39:49;;;;;;;0.77;0.40;;;;;;;;;;4412532;32;20369;-53
2022/01/11 09:42:18;;;;;;;0.40;0.40;;;;;;;;;;4414371;32;20046;-48
2022/01/11 09:44:47;;;;;;;0.22;0.22;;;;;;;;;;4411726;32;20078;-51
2022/01/11 09:47:16;;;;;;;0.70;0.30;;;;;;;;;;4415204;32;20107;-50
2022/01/11 09:49:45;;;;;;;0.32;0.30;;;;;;;;;;4413548;32;20545;-49
2022/01/11 09:52:14;;;;;;;0.50;0.50;;;;;;;;;;4406832;32;20073;-52
2022/01/11 09:54:46;;;;;;;0.52;0.30;;;;;;;;;;4411206;32;20562;-51
2022/01/11 09:57:15;;;;;;;0.43;0.37;;;;;;;;;;4407642;32;20115;-53
2022/01/11 09:59:44;;;;;;;1.30;0.50;;;;;;;;;;4410790;32;20035;-53
2022/01/11 10:02:25;;;;;;;0.75;0.45;;;;;;;;;;4405987;32;20046;-50
2022/01/11 10:04:59;;;;;;;0.50;0.50;;;;;;;;;;4411954;32;20102;-50
2022/01/11 10:07:29;;;;;;;1.50;0.40;;;;;;;;;;4415040;32;20055;-50
2022/01/11 10:09:58;;;;;;;0.40;0.40;;;;;;;;;;4414927;32;20049;-50
2022/01/11 10:12:34;;;;;;;0.40;0.40;;;;;;;;;;4418481;32;20043;-51
2022/01/11 10:15:03;;;;;;;0.40;0.30;;;;;;;;;;4414830;32;20045;-50
2022/01/11 10:17:38;;;;;;;1.10;0.30;;;;;;;;;;4405646;32;20404;-50
2022/01/11 10:20:09;;;;;;;0.70;0.37;;;;;;;;;;4416060;32;20046;-51
2022/01/11 10:22:56;;;;;;;0.73;0.40;;;;;;;;;;4412936;32;20110;-50
2022/01/11 10:25:25;;;;;;;0.50;0.50;;;;;;;;;;4408060;32;20093;-51
2022/01/11 10:28:01;;;;;;;0.80;0.57;;;;;;;;;;4410395;32;20057;-50
2022/01/11 10:30:31;;;;;;;0.68;0.30;;;;;;;;;;4406714;32;20139;-52
2022/01/11 10:33:01;;;;;;;0.40;0.32;;;;;;;;;;4415231;32;20080;-51
2022/01/11 10:35:44;;;;;;;0.40;0.30;;;;;;;;;;4413983;32;20046;-52
2022/01/11 10:38:24;;;;;;;0.30;0.30;;;;;;;;;;4415623;32;20085;-52
2022/01/11 10:40:54;;;;;;;0.35;0.30;;;;;;;;;;4418402;32;20056;-51
2022/01/11 10:43:23;;;;;;;0.30;0.30;;;;;;;;;;4412554;32;20516;-51
2022/01/11 10:45:58;;;;;;;0.70;0.40;;;;;;;;;;4411517;32;20042;-50
2022/01/11 10:48:28;;;;;;;0.40;0.40;;;;;;;;;;4410072;32;20042;-50
2022/01/11 10:51:01;;;;;;;0.40;0.40;;;;;;;;;;4408075;32;20046;-50
2022/01/11 10:53:32;;;;;;;0.45;0.35;;;;;;;;;;4413539;32;20023;-50
2022/01/11 10:56:02;;;;;;;1.95;0.52;;;;;;;;;;4415695;32;20055;-52
2022/01/11 10:58:43;;;;;;;1.05;0.52;;;;;;;;;;4418541;32;20384;-51
2022/01/11 11:01:12;;;;;;;0.43;0.30;;;;;;;;;;4412191;32;20098;-51
2022/01/11 11:03:41;;;;;;;2.45;0.40;;;;;;;;;;4405386;32;20038;-51
2022/01/11 11:06:11;;;;;;;0.40;0.40;;;;;;;;;;4411530;32;20072;-50
2022/01/11 11:08:47;;;;;;;0.75;0.30;;;;;;;;;;4409645;32;20026;-49
2022/01/11 11:11:20;;;;;;;0.40;0.40;;;;;;;;;;4411053;32;20130;-52
2022/01/11 11:13:51;;;;;;;0.30;0.30;;;;;;;;;;4406690;32;20076;-49
2022/01/11 11:16:29;;;;;;;1.17;0.30;;;;;;;;;;4413230;32;20037;-49
2022/01/11 11:18:58;;;;;;;0.40;0.40;;;;;;;;;;4419091;32;20046;-50
2022/01/11 11:21:32;;;;;;;0.40;0.30;;;;;;;;;;4415640;32;20042;-50
2022/01/11 11:24:02;;;;;;;0.98;0.40;;;;;;;;;;4408488;32;20331;-51
2022/01/11 11:26:39;;;;;;;1.25;0.50;;;;;;;;;;4405310;32;20096;-50
2022/01/11 11:29:08;;;;;;;0.30;0.20;;;;;;;;;;4410288;32;20113;-51
2022/01/11 11:31:56;;;;;;;0.30;0.30;;;;;;;;;;4415881;32;20350;-49
2022/01/11 11:34:30;;;;;;;0.32;0.30;;;;;;;;;;4404247;32;20056;-49
2022/01/11 11:37:05;;;;;;;0.45;0.40;;;;;;;;;;4412827;32;20365;-50
2022/01/11 11:39:34;;;;;;;0.43;0.40;;;;;;;;;;4407658;32;20050;-50
2022/01/11 11:42:04;;;;;;;0.40;0.40;;;;;;;;;;4414773;32;20047;-50
2022/01/11 11:44:37;;;;;;;0.40;0.40;;;;;;;;;;4408180;32;20467;-50
2022/01/11 11:47:07;;;;;;;0.20;0.20;;;;;;;;;;4406618;32;20052;-50
2022/01/11 11:49:43;;;;;;;1.67;0.40;;;;;;;;;;4415033;32;20034;-50
2022/01/11 11:52:22;;;;;;;2.40;0.50;;;;;;;;;;4415517;32;20353;-50
2022/01/11 11:54:50;;;;;;;0.40;0.40;;;;;;;;;;4411029;32;20429;-52
2022/01/11 11:57:19;;;;;;;0.40;0.40;;;;;;;;;;4417467;32;20038;-52
2022/01/11 11:59:53;;;;;;;0.95;0.40;;;;;;;;;;4409970;32;20090;-53
2022/01/11 12:02:21;;;;;;;;;;;;;;;;;;4411044;32;20062;-50
2022/01/11 12:04:54;;;;;;;0.70;0.45;;;;;;;;;;4405482;32;22933;-49
2022/01/11 12:07:33;;;;;;;0.30;0.30;;;;;;;;;;4411918;32;20418;-50
2022/01/11 12:10:02;;;;;;;0.55;0.32;;;;;;;;;;4401975;32;20054;-50
2022/01/11 12:12:39;;;;;;;0.50;0.50;;;;;;;;;;4411678;32;20106;-50
2022/01/11 12:15:23;;;;;;;2.37;0.40;;;;;;;;;;4409366;32;20030;-52
2022/01/11 12:17:57;;;;;;;1.27;0.35;;;;;;;;;;4405896;32;20057;-51
2022/01/11 12:20:46;;;;;;;2.87;0.70;;;;;;;;;;4405661;32;20098;-51
2022/01/11 12:23:20;;;;;;;1.87;0.80;;;;;;;;;;4403990;32;20054;-53
2022/01/11 12:25:49;;;;;;;;;;;;;;;;;;4417107;32;20388;-53
2022/01/11 12:28:19;;;;;;;3.17;1.45;;;;;;;;;;4402851;32;20413;-50
2022/01/11 12:30:47;;;;;;;4.32;1.50;;;;;;;;;;4403772;32;20153;-50
2022/01/11 12:33:25;;;;;;;3.85;1.65;;;;;;;;;;4415717;32;20608;-49
2022/01/11 12:35:55;;;;;;;5.75;1.77;;;;;;;;;;4412501;32;20103;-50
2022/01/11 12:38:25;;;;;;;5.53;1.90;;;;;;;;;;4407409;32;20038;-50
2022/01/11 12:40:54;;;;;;;5.85;2.20;;;;;;;;;;4418725;32;20035;-49
2022/01/11 12:43:38;;;;;;;7.40;1.95;;;;;;;;;;4408253;32;20043;-49
2022/01/11 12:46:11;;;;;;;6.75;2.12;;;;;;;;;;4414396;32;20085;-49
2022/01/11 12:48:47;;;;;;;7.20;2.37;;;;;;;;;;4405573;32;20054;-51
2022/01/11 12:51:26;;;;;;;8.05;2.42;;;;;;;;;;4412599;32;20035;-51
2022/01/11 12:54:08;;;;;;;5.15;1.73;;;;;;;;;;4412123;32;20410;-53
2022/01/11 12:56:40;;;;;;;7.50;2.30;;;;;;;;;;4416441;32;20482;-50
2022/01/11 12:59:08;;;;;;;7.60;2.30;;;;;;;;;;4412421;32;20087;-49
2022/01/11 13:01:36;;;;;;;6.62;2.37;;;;;;;;;;4403955;32;20086;-51
2022/01/11 13:04:05;;;;;;;6.82;2.53;;;;;;;;;;4415095;32;20462;-50
2022/01/11 13:06:36;;;;;;;10.35;2.58;;;;;;;;;;4414256;32;20042;-49
2022/01/11 13:09:09;;;;;;;6.30;2.03;;;;;;;;;;4415829;32;20055;-49
2022/01/11 13:11:41;;;;;;;5.37;2.30;;;;;;;;;;4419180;32;20091;-53
2022/01/11 13:17:09;;;;;;;8.95;3.00;;;;;;;;;;4397311;32;20110;-50
2022/01/11 13:19:41;;;;;;;10.00;2.85;;;;;;;;;;4409881;32;20031;-49
2022/01/11 13:22:13;;;;;;;8.60;3.12;;;;;;;;;;4415326;32;20062;-50
2022/01/11 13:24:48;;;;;;;7.87;2.95;;;;;;;;;;4413160;32;20400;-50
2022/01/11 13:27:16;;;;;;;5.82;3.15;;;;;;;;;;4413998;32;20480;-50
2022/01/11 13:29:45;;;;;;;7.45;2.70;;;;;;;;;;4413641;32;20097;-49
2022/01/11 13:32:13;;;;;;;10.85;3.40;;;;;;;;;;4408889;32;20027;-49
2022/01/11 13:34:42;;;;;;;8.10;3.50;;;;;;;;;;4410214;32;20038;-51
2022/01/11 13:37:11;;;;;;;8.18;3.40;;;;;;;;;;4416284;32;20062;-49
2022/01/11 13:39:41;;;;;;;9.35;3.72;;;;;;;;;;4418823;32;20039;-48
2022/01/11 13:42:11;;;;;;;8.27;3.50;;;;;;;;;;4413927;32;20140;-48
2022/01/11 13:44:42;;;;;;;11.02;3.78;;;;;;;;;;4414973;32;20052;-50
2022/01/11 13:47:19;;;;;;;8.63;3.65;;;;;;;;;;4413866;32;20058;-52
2022/01/11 13:49:52;;;;;;;7.65;3.45;;;;;;;;;;4411365;32;20105;-50
2022/01/11 13:52:23;;;;;;;6.97;3.70;;;;;;;;;;4414391;32;20056;-50
2022/01/11 13:54:53;;;;;;;7.50;3.75;;;;;;;;;;4420754;32;20049;-49
2022/01/11 13:57:22;;;;;;;8.68;3.92;;;;;;;;;;4414393;32;20472;-50
2022/01/11 14:00:17;;;;;;;10.27;4.00;;;;;;;;;;4412459;32;20047;-52
2022/01/11 14:02:47;;;;;;;6.22;3.58;;;;;;;;;;4400214;32;20479;-50
2022/01/11 14:05:16;;;;;;;10.27;4.40;;;;;;;;;;4413949;32;20033;-53
2022/01/11 14:07:53;;;;;;;9.98;4.37;;;;;;;;;;4413420;32;20332;-49
2022/01/11 14:10:28;;;;;;;11.95;4.12;;;;;;;;;;4416314;32;20065;-50
2022/01/11 14:12:56;;;;;;;8.43;4.00;;;;;;;;;;4405588;32;20042;-51
2022/01/11 14:15:28;;;;;;;10.15;4.32;;;;;;;;;;4414196;32;20052;-49
2022/01/11 14:17:58;;;;;;;11.63;4.40;;;;;;;;;;4416526;32;20042;-51
2022/01/11 14:20:28;;;;;;;11.55;4.30;;;;;;;;;;4401463;32;20390;-52
2022/01/11 14:22:58;;;;;;;10.68;4.32;;;;;;;;;;4405645;32;20042;-50
2022/01/11 14:25:31;;;;;;;9.43;4.25;;;;;;;;;;4409554;32;20074;-50
2022/01/11 14:28:04;;;;;;;12.15;4.15;;;;;;;;;;4402638;32;20523;-51
2022/01/11 14:30:34;;;;;;;;;;;;;;;;;;4408873;32;20039;-50
2022/01/11 14:33:02;;;;;;;10.98;4.62;;;;;;;;;;4404068;32;19941;-50
2022/01/11 14:35:30;;;;;;;11.27;4.40;;;;;;;;;;4406859;32;20084;-50
2022/01/11 14:38:03;;;;;;;10.63;4.85;;;;;;;;;;4415187;32;20053;-49
2022/01/11 14:40:41;;;;;;;11.10;4.28;;;;;;;;;;4415121;32;20030;-49
2022/01/11 14:43:20;;;;;;;11.75;4.50;;;;;;;;;;4413221;32;20042;-50
2022/01/11 14:45:56;;;;;;;11.77;4.40;;;;;;;;;;4406390;32;20069;-51
2022/01/11 14:48:31;;;;;;;10.85;4.30;;;;;;;;;;4408392;32;20038;-49
2022/01/11 14:50:59;;;;;;;11.93;4.65;;;;;;;;;;4413703;32;20042;-51
2022/01/11 14:53:30;;;;;;;11.50;4.65;;;;;;;;;;4407196;32;20103;-53
2022/01/11 14:55:58;;;;;;;11.27;4.85;;;;;;;;;;4413043;32;20056;-50
2022/01/11 14:58:34;;;;;;;10.98;4.40;;;;;;;;;;4409711;32;20038;-50
2022/01/11 15:01:05;;;;;;;8.70;3.85;;;;;;;;;;4409321;32;20410;-49
2022/01/11 15:03:39;;;;;;;10.00;4.20;;;;;;;;;;4400347;32;20114;-53
2022/01/11 15:06:24;;;;;;;7.90;4.10;;;;;;;;;;4408751;32;20489;-49
2022/01/11 15:08:54;;;;;;;11.70;3.83;;;;;;;;;;4407009;32;20363;-50